Terminal Aerodrome Forecast
Issued by NWS Grand Rapids, MI

Home | Current Version | Previous Version | Text Only | Print | Product List | Glossary On
Versions: 1 2 3 4 5 6 7 8 9 10 11 12 13 14 15 16 17 18 19 20 21 22 23
000
FTUS43 KGRR 012300
TAFGRR
TAF
KGRR 012340Z 0200/0224 05020G30KT 1/2SM SN BLSN VV008
     FM020900 01014G24KT 2SM -SN BLSN OVC015
     FM021100 36012G20KT 4SM -SN BLSN OVC020
     FM021300 35014G21KT P6SM BKN050=

USA.gov is the U.S. government's official web portal to all federal, state and local government web resources and services.